createdAt,value
2023-04-12T00:02:27.775Z,32.88
2023-04-12T00:04:58.054Z,32.93
2023-04-12T00:07:26.184Z,32.95
2023-04-12T00:09:54.286Z,32.86
2023-04-12T00:12:22.247Z,32.83
2023-04-12T00:14:50.231Z,32.89
2023-04-12T00:17:19.434Z,32.83
2023-04-12T00:19:47.799Z,32.81
2023-04-12T00:22:15.784Z,32.71
2023-04-12T00:24:44.056Z,32.73
2023-04-12T00:27:12.125Z,32.74
2023-04-12T00:29:40.391Z,32.72
2023-04-12T00:32:08.476Z,32.68
2023-04-12T00:34:36.651Z,32.62
2023-04-12T00:37:04.716Z,32.62
2023-04-12T00:39:32.693Z,32.58
2023-04-12T00:42:05.233Z,32.55
2023-04-12T00:44:35.483Z,32.56
2023-04-12T00:47:06.983Z,32.54
2023-04-12T00:49:36.033Z,32.50
2023-04-12T00:52:11.191Z,32.52
2023-04-12T00:54:39.884Z,32.42
2023-04-12T00:57:07.925Z,32.46
2023-04-12T00:59:36.019Z,32.31
2023-04-12T01:02:04.166Z,32.28
2023-04-12T01:04:34.667Z,32.25
2023-04-12T01:07:21.783Z,32.28
2023-04-12T01:10:10.040Z,32.18
2023-04-12T01:12:50.226Z,32.21
2023-04-12T01:15:18.293Z,32.23
2023-04-12T01:17:58.405Z,32.19
2023-04-12T01:20:32.035Z,32.15
2023-04-12T01:23:14.969Z,32.12
2023-04-12T01:25:59.022Z,32.05
2023-04-12T01:28:33.229Z,32.06
2023-04-12T01:31:03.038Z,32.04
2023-04-12T01:33:31.805Z,31.97
2023-04-12T01:36:01.869Z,31.92
2023-04-12T01:38:29.914Z,31.98
2023-04-12T01:40:57.998Z,32.01
2023-04-12T01:48:33.264Z,31.96
2023-04-12T01:53:48.973Z,32.03
2023-04-12T01:56:18.252Z,32.16
2023-04-12T01:58:47.676Z,32.21
2023-04-12T02:01:16.230Z,32.16
2023-04-12T02:03:45.450Z,32.16
2023-04-12T02:06:13.900Z,32.14
2023-04-12T02:08:41.914Z,32.23
2023-04-12T02:11:11.152Z,32.19
2023-04-12T02:13:39.172Z,32.21
2023-04-12T02:16:11.023Z,32.24
2023-04-12T02:18:41.689Z,32.35
2023-04-12T02:21:10.552Z,32.23
2023-04-12T02:23:38.473Z,32.33
2023-04-12T02:26:07.830Z,32.36
2023-04-12T02:28:37.430Z,32.29
2023-04-12T02:31:07.054Z,32.31
2023-04-12T02:33:36.148Z,32.35
2023-04-12T02:36:06.155Z,32.32
2023-04-12T02:38:34.228Z,32.32
2023-04-12T02:41:03.541Z,32.29
2023-04-12T02:43:33.153Z,32.28
2023-04-12T02:46:04.097Z,32.18
2023-04-12T02:48:37.062Z,32.16
2023-04-12T02:51:06.149Z,32.17
2023-04-12T02:53:34.308Z,32.10
2023-04-12T02:56:29.944Z,32.11
2023-04-12T02:59:03.859Z,32.10
2023-04-12T03:01:52.035Z,32.02
2023-04-12T03:04:30.685Z,32.01
2023-04-12T03:07:00.738Z,31.92
2023-04-12T03:09:42.727Z,31.98
2023-04-12T03:12:11.627Z,31.90
2023-04-12T03:14:46.378Z,31.94
2023-04-12T03:17:15.145Z,31.82
2023-04-12T03:19:44.052Z,31.81
2023-04-12T03:22:12.622Z,31.75
2023-04-12T03:24:46.038Z,31.78
2023-04-12T03:27:14.188Z,31.75
2023-04-12T03:29:42.472Z,31.61
2023-04-12T03:32:11.155Z,31.68
2023-04-12T03:34:39.778Z,31.72
2023-04-12T03:37:13.294Z,31.60
2023-04-12T03:39:48.485Z,31.54
2023-04-12T03:42:32.324Z,31.56
2023-04-12T03:45:10.478Z,31.52
2023-04-12T03:47:39.475Z,31.51
2023-04-12T03:50:12.003Z,31.43
2023-04-12T03:52:41.199Z,31.45
2023-04-12T03:55:09.684Z,31.39
2023-04-12T03:57:38.481Z,31.42
2023-04-12T04:00:08.861Z,31.33
2023-04-12T04:03:03.625Z,31.34
2023-04-12T04:05:35.041Z,31.34
2023-04-12T04:08:03.267Z,31.42
2023-04-12T04:10:36.803Z,31.33
2023-04-12T04:13:05.353Z,31.27
2023-04-12T04:15:33.541Z,31.20
2023-04-12T04:18:02.394Z,31.29
2023-04-12T04:20:32.169Z,31.32
2023-04-12T04:23:00.142Z,31.22
2023-04-12T04:25:30.301Z,31.28
2023-04-12T04:28:02.980Z,31.32
2023-04-12T04:30:34.241Z,31.28
2023-04-12T04:33:03.066Z,31.42
2023-04-12T04:35:31.692Z,31.44
2023-04-12T04:38:20.935Z,31.40
2023-04-12T04:40:53.611Z,31.52
2023-04-12T04:43:23.433Z,31.56
2023-04-12T04:45:55.907Z,31.64
2023-04-12T04:48:24.476Z,32.28
2023-04-12T04:50:53.074Z,32.56
2023-04-12T04:53:22.162Z,32.99
2023-04-12T04:55:57.728Z,32.80
2023-04-12T04:58:27.529Z,32.80
2023-04-12T05:00:59.938Z,32.97
2023-04-12T05:03:30.997Z,31.15
2023-04-12T05:05:59.832Z,30.29
2023-04-12T05:08:28.751Z,30.49
2023-04-12T05:10:57.199Z,31.07
2023-04-12T05:13:27.722Z,32.23
2023-04-12T05:15:55.657Z,33.14
2023-04-12T05:18:23.605Z,34.15
2023-04-12T05:20:51.841Z,34.84
2023-04-12T05:23:20.348Z,35.30
2023-04-12T05:25:50.254Z,35.63
2023-04-12T05:28:19.535Z,35.97
2023-04-12T05:30:48.191Z,36.01
2023-04-12T05:33:19.996Z,36.50
2023-04-12T05:35:48.662Z,36.74
2023-04-12T05:38:16.776Z,37.18
2023-04-12T05:40:46.964Z,37.46
2023-04-12T05:43:15.226Z,37.75
2023-04-12T05:45:43.476Z,37.90
2023-04-12T05:48:11.701Z,38.10
2023-04-12T05:50:39.872Z,38.47
2023-04-12T05:53:08.760Z,38.63
2023-04-12T05:55:38.222Z,38.71
2023-04-12T05:58:07.355Z,38.91
2023-04-12T06:00:36.476Z,39.28
2023-04-12T06:03:05.254Z,39.30
2023-04-12T06:05:34.228Z,39.54
2023-04-12T06:08:03.243Z,39.62
2023-04-12T06:10:31.411Z,39.49
2023-04-12T06:12:59.582Z,39.25
2023-04-12T06:15:28.209Z,38.99
2023-04-12T06:17:56.398Z,38.91
2023-04-12T06:20:25.946Z,38.39
2023-04-12T06:22:54.541Z,38.20
2023-04-12T06:25:23.220Z,37.97
2023-04-12T06:27:52.111Z,38.14
2023-04-12T06:30:20.975Z,37.89
2023-04-12T06:32:52.349Z,37.78
2023-04-12T06:35:21.658Z,37.77
2023-04-12T06:37:49.947Z,37.86
2023-04-12T06:40:17.986Z,37.51
2023-04-12T06:42:45.975Z,37.45
2023-04-12T06:45:14.641Z,37.38
2023-04-12T06:47:42.798Z,37.33
2023-04-12T06:50:11.093Z,37.12
2023-04-12T06:53:19.407Z,37.27
2023-04-12T06:55:47.984Z,36.91
2023-04-12T06:58:16.059Z,36.85
2023-04-12T07:00:44.101Z,36.65
2023-04-12T07:03:12.344Z,36.66
2023-04-12T07:05:40.491Z,36.67
2023-04-12T07:08:09.274Z,36.41
2023-04-12T07:10:37.265Z,35.91
2023-04-12T07:13:08.472Z,35.73
2023-04-12T07:15:36.684Z,35.78
2023-04-12T07:18:04.908Z,35.55
2023-04-12T07:20:32.838Z,35.54
2023-04-12T07:23:01.393Z,35.72
2023-04-12T07:25:29.253Z,35.76
2023-04-12T07:27:57.221Z,35.70
2023-04-12T07:30:25.738Z,35.47
2023-04-12T07:33:00.311Z,35.45
2023-04-12T07:35:34.262Z,35.42
2023-04-12T07:38:02.412Z,35.38
2023-04-12T07:40:30.700Z,35.22
2023-04-12T07:42:58.556Z,35.11
2023-04-12T07:45:26.535Z,35.21
2023-04-12T07:47:54.644Z,35.20
2023-04-12T07:50:22.783Z,35.10
2023-04-12T07:52:51.371Z,35.23
2023-04-12T07:55:19.540Z,35.09
2023-04-12T07:57:47.510Z,35.08
2023-04-12T08:00:16.952Z,34.97
2023-04-12T08:02:45.234Z,34.87
2023-04-12T08:05:13.855Z,34.83
2023-04-12T08:07:41.941Z,34.83
2023-04-12T08:10:10.241Z,34.78
2023-04-12T08:12:38.289Z,34.72
2023-04-12T08:15:07.073Z,34.76
2023-04-12T08:17:35.281Z,34.74
2023-04-12T08:20:04.862Z,34.60
2023-04-12T08:22:32.706Z,34.57
2023-04-12T08:25:00.707Z,34.53
2023-04-12T08:27:29.602Z,34.57
2023-04-12T08:29:57.965Z,34.50
2023-04-12T08:32:26.419Z,34.37
2023-04-12T08:34:55.523Z,34.40
2023-04-12T08:37:23.486Z,34.33
2023-04-12T08:39:51.477Z,34.14
2023-04-12T08:42:19.559Z,34.06
2023-04-12T08:44:47.523Z,34.07
2023-04-12T08:47:15.804Z,34.02
2023-04-12T08:49:43.972Z,33.94
2023-04-12T08:52:12.331Z,33.79
2023-04-12T08:54:40.542Z,33.75
2023-04-12T09:04:53.105Z,33.75
2023-04-12T09:07:28.067Z,33.69
2023-04-12T09:09:57.338Z,33.63
2023-04-12T09:12:25.855Z,33.70
2023-04-12T09:15:13.998Z,33.70
2023-04-12T09:17:42.583Z,33.65
2023-04-12T09:20:17.067Z,33.66
2023-04-12T09:22:46.537Z,33.61
2023-04-12T09:25:16.271Z,33.63
2023-04-12T09:27:52.067Z,33.59
2023-04-12T09:30:20.901Z,33.61
2023-04-12T09:32:53.668Z,33.63
2023-04-12T09:35:37.202Z,33.63
2023-04-12T09:38:09.518Z,33.68
2023-04-12T09:40:37.551Z,33.60
2023-04-12T09:48:20.150Z,33.70
2023-04-12T09:50:48.189Z,33.69
2023-04-12T09:53:20.770Z,33.61
2023-04-12T09:55:49.565Z,33.60
2023-04-12T09:58:19.476Z,33.49
2023-04-12T10:00:47.448Z,33.73
2023-04-12T10:10:59.086Z,33.69
2023-04-12T10:13:27.269Z,33.78
2023-04-12T10:15:55.602Z,33.69
2023-04-12T10:18:23.855Z,33.63
2023-04-12T10:20:51.869Z,33.77
2023-04-12T10:23:21.173Z,33.76
2023-04-12T10:28:23.130Z,33.76
2023-04-12T10:30:53.357Z,33.76
2023-04-12T10:33:28.441Z,33.75
2023-04-12T10:36:04.157Z,33.70
2023-04-12T10:38:47.484Z,33.68
2023-04-12T10:41:21.208Z,33.74
2023-04-12T10:43:52.190Z,33.67
2023-04-12T10:46:41.038Z,33.69
2023-04-12T10:49:13.526Z,33.69
2023-04-12T10:52:00.505Z,33.70
2023-04-12T10:54:28.775Z,33.70
2023-04-12T10:56:57.680Z,33.67
2023-04-12T10:59:56.869Z,33.83
2023-04-12T11:02:25.472Z,33.82
2023-04-12T11:05:10.431Z,33.73
2023-04-12T11:07:54.682Z,33.81
2023-04-12T11:11:00.214Z,33.71
2023-04-12T11:13:36.983Z,33.92
2023-04-12T11:16:06.495Z,33.85
2023-04-12T11:18:35.918Z,33.82
2023-04-12T11:21:04.993Z,33.88
2023-04-12T11:23:33.270Z,33.80
2023-04-12T11:26:01.166Z,33.79
2023-04-12T11:28:31.856Z,33.83
2023-04-12T11:31:01.389Z,33.79
2023-04-12T11:33:37.217Z,33.71
2023-04-12T11:36:09.572Z,33.79
2023-04-12T11:38:38.352Z,33.72
2023-04-12T11:41:08.228Z,33.74
2023-04-12T11:43:38.658Z,33.72
2023-04-12T11:46:07.028Z,33.87
2023-04-12T11:48:35.281Z,33.87
2023-04-12T11:51:19.441Z,33.84
2023-04-12T11:53:52.426Z,33.71
2023-04-12T11:56:20.596Z,33.75
2023-04-12T11:58:48.777Z,33.71
2023-04-12T12:01:17.329Z,33.72
2023-04-12T12:03:45.621Z,33.67
2023-04-12T12:06:14.562Z,33.71
2023-04-12T12:08:43.108Z,33.70
2023-04-12T12:11:11.579Z,33.55
2023-04-12T12:13:49.606Z,33.68
2023-04-12T12:16:18.787Z,33.60
2023-04-12T12:18:51.041Z,33.69
2023-04-12T12:21:21.006Z,33.64
2023-04-12T12:23:49.221Z,33.71
2023-04-12T12:26:28.465Z,33.64
2023-04-12T12:28:57.657Z,33.55
2023-04-12T12:31:28.202Z,33.55
2023-04-12T12:34:01.155Z,33.60
2023-04-12T12:36:33.549Z,33.71
2023-04-12T12:39:10.782Z,33.67
2023-04-12T12:41:39.776Z,33.53
2023-04-12T12:44:08.473Z,33.56
2023-04-12T12:46:52.039Z,33.58
2023-04-12T12:54:40.708Z,33.89
2023-04-12T12:57:09.840Z,33.79
2023-04-12T12:59:38.033Z,33.84
2023-04-12T13:02:07.640Z,33.80
2023-04-12T13:04:36.586Z,33.79
2023-04-12T13:07:04.718Z,33.88
2023-04-12T13:17:12.508Z,33.80
2023-04-12T13:19:41.338Z,33.78
2023-04-12T13:22:09.521Z,33.81
2023-04-12T13:24:37.798Z,33.77
2023-04-12T13:27:05.972Z,33.86
2023-04-12T13:29:34.034Z,33.83
2023-04-12T13:32:02.048Z,33.83
2023-04-12T13:34:30.908Z,33.85
2023-04-12T13:36:59.383Z,33.70
2023-04-12T13:39:27.318Z,33.88
2023-04-12T13:41:55.323Z,33.75
2023-04-12T13:44:23.392Z,33.76
2023-04-12T13:46:52.110Z,33.85
2023-04-12T13:49:20.261Z,33.84
2023-04-12T13:51:48.435Z,33.87
2023-04-12T13:54:17.686Z,33.87
2023-04-12T13:56:45.805Z,33.83
2023-04-12T13:59:14.490Z,34.02
2023-04-12T14:01:42.549Z,33.86
2023-04-12T14:04:11.377Z,33.84
2023-04-12T14:06:39.254Z,33.88
2023-04-12T14:09:07.171Z,33.96
2023-04-12T14:11:56.516Z,33.91
2023-04-12T14:14:25.467Z,34.09
2023-04-12T14:16:57.240Z,34.15
2023-04-12T14:19:25.469Z,34.03
2023-04-12T14:21:53.468Z,34.04
2023-04-12T14:24:21.938Z,34.01
2023-04-12T14:26:53.485Z,34.06
2023-04-12T14:29:21.583Z,33.92
2023-04-12T14:31:49.632Z,33.88
2023-04-12T14:34:17.601Z,33.89
2023-04-12T14:36:45.841Z,33.82
2023-04-12T14:39:14.845Z,33.82
2023-04-12T14:41:44.475Z,33.80
2023-04-12T14:44:12.647Z,33.74
2023-04-12T14:46:40.875Z,33.69
2023-04-12T14:49:09.117Z,33.80
2023-04-12T14:51:37.164Z,33.72
2023-04-12T14:54:05.956Z,33.83
2023-04-12T14:56:40.402Z,33.71
2023-04-12T14:59:11.064Z,33.79
2023-04-12T15:01:39.595Z,33.83
2023-04-12T15:04:07.844Z,33.86
2023-04-12T15:06:42.338Z,33.74
2023-04-12T15:09:10.964Z,33.71
2023-04-12T15:11:39.660Z,33.86
2023-04-12T15:14:07.747Z,33.85
2023-04-12T15:16:35.902Z,33.77
2023-04-12T15:19:10.109Z,33.73
2023-04-12T15:21:41.682Z,33.81
2023-04-12T15:24:09.756Z,33.91
2023-04-12T15:26:37.685Z,33.85
2023-04-12T15:29:05.586Z,33.88
2023-04-12T15:31:33.587Z,33.77
2023-04-12T15:34:01.752Z,33.95
2023-04-12T15:36:34.327Z,33.84
2023-04-12T15:39:02.383Z,33.86
2023-04-12T15:41:35.070Z,33.99
2023-04-12T15:44:07.398Z,33.94
2023-04-12T15:46:36.018Z,33.84
2023-04-12T15:49:04.597Z,33.82
2023-04-12T15:51:32.572Z,33.93
2023-04-12T15:54:01.009Z,34.10
2023-04-12T15:56:29.841Z,34.11
2023-04-12T15:58:58.077Z,34.09
2023-04-12T16:01:26.749Z,34.19
2023-04-12T16:03:55.589Z,34.24
2023-04-12T16:06:25.447Z,34.41
2023-04-12T16:11:28.311Z,34.65
2023-04-12T16:13:56.786Z,34.89
2023-04-12T16:16:25.705Z,35.00
2023-04-12T16:18:58.092Z,34.99
2023-04-12T16:21:26.954Z,34.95
2023-04-12T16:23:55.803Z,34.95
2023-04-12T16:26:26.058Z,34.99
2023-04-12T16:28:54.346Z,35.06
2023-04-12T16:33:55.997Z,35.07
2023-04-12T16:38:59.334Z,34.77
2023-04-12T16:41:27.904Z,34.83
2023-04-12T16:43:59.463Z,34.96
2023-04-12T16:46:27.883Z,34.82
2023-04-12T16:48:59.472Z,34.74
2023-04-12T16:51:36.957Z,34.66
2023-04-12T16:54:06.088Z,34.71
2023-04-12T16:56:35.133Z,34.80
2023-04-12T16:59:04.775Z,34.62
2023-04-12T17:01:32.861Z,34.53
2023-04-12T17:04:01.648Z,34.69
2023-04-12T17:06:30.526Z,34.63
2023-04-12T17:08:58.741Z,34.58
2023-04-12T17:11:27.805Z,34.59
2023-04-12T17:13:57.378Z,35.05
2023-04-12T17:16:26.027Z,35.44
2023-04-12T17:18:55.938Z,35.97
2023-04-12T17:21:24.561Z,36.35
2023-04-12T17:23:53.897Z,36.61
2023-04-12T17:26:25.363Z,36.85
2023-04-12T17:28:54.853Z,36.72
2023-04-12T17:31:23.266Z,36.69
2023-04-12T17:33:51.303Z,37.07
2023-04-12T17:36:20.604Z,37.24
2023-04-12T17:38:48.672Z,37.54
2023-04-12T17:41:16.748Z,37.34
2023-04-12T17:43:47.361Z,37.32
2023-04-12T17:46:15.486Z,37.40
2023-04-12T17:48:43.519Z,37.42
2023-04-12T17:51:11.774Z,37.40
2023-04-12T17:53:39.769Z,37.53
2023-04-12T17:56:08.349Z,37.42
2023-04-12T17:58:36.633Z,37.57
2023-04-12T18:01:04.915Z,37.61
2023-04-12T18:03:35.252Z,37.46
2023-04-12T18:06:04.372Z,37.53
2023-04-12T18:08:32.800Z,37.64
2023-04-12T18:11:00.876Z,37.60
2023-04-12T18:13:29.560Z,37.47
2023-04-12T18:15:57.906Z,37.28
2023-04-12T18:18:26.841Z,37.31
2023-04-12T18:20:55.522Z,37.19
2023-04-12T18:23:25.261Z,37.07
2023-04-12T18:25:53.920Z,37.14
2023-04-12T18:28:23.328Z,36.94
2023-04-12T18:30:51.493Z,36.91
2023-04-12T18:33:24.991Z,36.83
2023-04-12T18:35:55.506Z,36.84
2023-04-12T18:38:23.902Z,36.77
2023-04-12T18:40:52.278Z,36.70
2023-04-12T18:43:20.551Z,36.67
2023-04-12T18:45:48.624Z,36.58
2023-04-12T18:48:17.616Z,36.47
2023-04-12T18:50:49.691Z,36.34
2023-04-12T18:53:18.277Z,36.41
2023-04-12T18:55:49.215Z,36.43
2023-04-12T18:58:17.698Z,36.24
2023-04-12T19:00:46.098Z,36.35
2023-04-12T19:03:14.621Z,36.17
2023-04-12T19:05:43.613Z,36.12
2023-04-12T19:08:13.760Z,36.10
2023-04-12T19:10:42.160Z,36.04
2023-04-12T19:13:14.830Z,36.15
2023-04-12T19:15:43.008Z,36.10
2023-04-12T19:18:11.634Z,35.93
2023-04-12T19:20:40.484Z,35.89
2023-04-12T19:23:08.644Z,36.02
2023-04-12T19:25:36.633Z,35.90
2023-04-12T19:28:05.113Z,35.82
2023-04-12T19:30:33.364Z,35.83
2023-04-12T19:33:01.347Z,35.91
2023-04-12T19:35:32.998Z,35.86
2023-04-12T19:38:02.423Z,35.91
2023-04-12T19:40:31.253Z,35.92
2023-04-12T19:43:00.283Z,35.88
2023-04-12T19:45:29.103Z,35.81
2023-04-12T19:47:57.402Z,35.82
2023-04-12T19:50:25.736Z,35.59
2023-04-12T19:52:56.680Z,35.59
2023-04-12T19:55:25.320Z,35.74
2023-04-12T19:57:53.533Z,35.67
2023-04-12T20:00:23.176Z,35.78
2023-04-12T20:02:55.557Z,35.58
2023-04-12T20:05:24.224Z,35.54
2023-04-12T20:07:55.329Z,35.62
2023-04-12T20:10:23.427Z,35.66
2023-04-12T20:12:51.779Z,35.53
2023-04-12T20:15:19.756Z,35.54
2023-04-12T20:17:48.750Z,35.53
2023-04-12T20:20:17.451Z,35.70
2023-04-12T20:22:52.172Z,35.68
2023-04-12T20:25:23.213Z,35.66
2023-04-12T20:27:52.609Z,35.51
2023-04-12T20:30:21.305Z,35.54
2023-04-12T20:32:51.624Z,35.63
2023-04-12T20:35:20.306Z,35.30
2023-04-12T20:37:50.725Z,35.49
2023-04-12T20:40:19.445Z,35.56
2023-04-12T20:42:48.118Z,35.48
2023-04-12T20:45:17.946Z,35.41
2023-04-12T20:47:46.069Z,35.55
2023-04-12T20:50:14.173Z,35.57
2023-04-12T20:52:42.337Z,35.54
2023-04-12T20:55:10.949Z,35.40
2023-04-12T20:57:39.408Z,35.48
2023-04-12T21:00:17.492Z,35.69
2023-04-12T21:02:46.214Z,35.49
2023-04-12T21:05:17.467Z,35.47
2023-04-12T21:07:47.160Z,35.59
2023-04-12T21:10:15.443Z,35.60
2023-04-12T21:12:45.171Z,35.57
2023-04-12T21:15:13.976Z,35.39
2023-04-12T21:17:42.971Z,35.57
2023-04-12T21:20:13.902Z,35.47
2023-04-12T21:22:45.201Z,35.37
2023-04-12T21:25:16.380Z,35.52
2023-04-12T21:27:46.093Z,35.54
2023-04-12T21:30:14.623Z,35.54
2023-04-12T21:32:44.218Z,35.54
2023-04-12T21:35:13.769Z,35.43
2023-04-12T21:37:41.748Z,35.35
2023-04-12T21:40:10.342Z,35.36
2023-04-12T21:42:39.123Z,35.60
2023-04-12T21:45:08.863Z,35.45
2023-04-12T21:47:39.299Z,35.46
2023-04-12T21:50:08.573Z,35.26
2023-04-12T21:52:37.047Z,35.24
2023-04-12T21:55:05.810Z,35.26
2023-04-12T21:57:34.405Z,35.42
2023-04-12T22:00:05.756Z,35.37
2023-04-12T22:02:40.808Z,35.54
2023-04-12T22:05:09.778Z,35.36
2023-04-12T22:07:41.491Z,35.47
2023-04-12T22:10:12.235Z,35.43
2023-04-12T22:12:40.693Z,35.58
2023-04-12T22:15:11.851Z,35.31
2023-04-12T22:17:41.003Z,35.34
2023-04-12T22:20:10.577Z,35.28
2023-04-12T22:22:39.912Z,35.23
2023-04-12T22:25:12.041Z,35.27
2023-04-12T22:27:40.852Z,35.38
2023-04-12T22:30:12.206Z,35.24
2023-04-12T22:32:40.622Z,35.17
2023-04-12T22:35:10.308Z,35.31
2023-04-12T22:37:39.311Z,35.41
2023-04-12T22:40:14.470Z,35.44
2023-04-12T22:42:48.742Z,35.46
2023-04-12T22:45:17.243Z,35.47
2023-04-12T22:47:45.603Z,35.31
2023-04-12T22:50:14.088Z,35.31
2023-04-12T22:52:42.251Z,35.47
2023-04-12T22:55:18.360Z,35.42
2023-04-12T22:57:47.244Z,35.57
2023-04-12T23:00:18.187Z,35.30
2023-04-12T23:02:46.896Z,35.42
2023-04-12T23:05:16.314Z,35.49
2023-04-12T23:07:44.721Z,35.41
2023-04-12T23:10:12.890Z,35.51
2023-04-12T23:12:40.969Z,35.32
2023-04-12T23:15:09.330Z,35.37
2023-04-12T23:17:37.391Z,35.32
2023-04-12T23:20:11.007Z,35.31
2023-04-12T23:22:57.366Z,35.30
2023-04-12T23:25:39.797Z,35.35
2023-04-12T23:28:15.094Z,35.38
2023-04-12T23:30:44.671Z,35.36
2023-04-12T23:33:12.847Z,35.16
2023-04-12T23:35:41.524Z,35.34
2023-04-12T23:38:10.434Z,35.40
2023-04-12T23:40:38.503Z,35.36
2023-04-12T23:43:08.718Z,35.29
2023-04-12T23:45:39.668Z,35.36
2023-04-12T23:48:08.208Z,35.40
2023-04-12T23:50:36.925Z,35.43
2023-04-12T23:53:05.987Z,35.34
2023-04-12T23:55:33.992Z,35.36
2023-04-12T23:58:02.073Z,35.26
